createdAt,value
2023-03-04T00:01:28.905Z,9.10
2023-03-04T00:03:57.848Z,8.87
2023-03-04T00:06:26.129Z,8.90
2023-03-04T00:08:54.771Z,7.40
2023-03-04T00:11:25.936Z,8.03
2023-03-04T00:13:54.419Z,9.80
2023-03-04T00:16:23.765Z,8.50
2023-03-04T00:18:53.886Z,8.57
2023-03-04T00:21:22.516Z,7.57
2023-03-04T00:23:50.918Z,7.90
2023-03-04T00:26:21.725Z,7.90
2023-03-04T00:28:52.213Z,8.60
2023-03-04T00:31:22.529Z,8.53
2023-03-04T00:33:51.086Z,7.47
2023-03-04T00:36:19.209Z,8.00
2023-03-04T00:38:47.228Z,7.83
2023-03-04T00:41:15.289Z,8.23
2023-03-04T00:43:44.918Z,8.07
2023-03-04T00:46:14.564Z,8.20
2023-03-04T00:48:44.365Z,8.77
2023-03-04T00:51:12.708Z,7.97
2023-03-04T00:53:41.198Z,8.10
2023-03-04T00:56:12.214Z,7.80
2023-03-04T00:58:40.768Z,7.83
2023-03-04T01:01:09.048Z,8.87
2023-03-04T01:03:41.470Z,8.33
2023-03-04T01:06:11.568Z,8.20
2023-03-04T01:08:42.663Z,9.27
2023-03-04T01:11:14.308Z,8.53
2023-03-04T01:13:42.468Z,9.40
2023-03-04T01:16:12.983Z,9.90
2023-03-04T01:18:47.419Z,9.37
2023-03-04T01:21:15.392Z,9.47
2023-03-04T01:23:43.717Z,9.30
2023-03-04T01:26:11.611Z,7.60
2023-03-04T01:28:39.632Z,9.70
2023-03-04T01:31:08.867Z,9.77
2023-03-04T01:33:38.129Z,9.83
2023-03-04T01:36:08.490Z,8.17
2023-03-04T01:38:36.773Z,8.70
2023-03-04T01:41:06.000Z,9.80
2023-03-04T01:43:35.222Z,8.90
2023-03-04T01:46:04.342Z,9.17
2023-03-04T01:48:36.992Z,8.60
2023-03-04T01:51:14.914Z,8.73
2023-03-04T01:53:50.145Z,9.40
2023-03-04T01:56:24.390Z,8.47
2023-03-04T01:59:10.400Z,8.37
2023-03-04T02:01:39.811Z,8.70
2023-03-04T02:04:11.150Z,9.33
2023-03-04T02:06:43.902Z,9.40
2023-03-04T02:09:13.868Z,7.80
2023-03-04T02:11:42.511Z,9.10
2023-03-04T02:14:11.703Z,8.40
2023-03-04T02:16:43.959Z,8.67
2023-03-04T02:19:29.809Z,8.77
2023-03-04T02:21:59.432Z,8.40
2023-03-04T02:24:36.201Z,8.53
2023-03-04T02:27:09.107Z,8.87
2023-03-04T02:29:39.257Z,9.73
2023-03-04T02:32:07.882Z,8.30
2023-03-04T02:34:37.357Z,9.43
2023-03-04T02:37:05.618Z,10.00
2023-03-04T02:39:37.778Z,9.13
2023-03-04T02:42:10.475Z,8.60
2023-03-04T02:44:41.732Z,9.30
2023-03-04T02:47:16.853Z,9.30
2023-03-04T02:49:47.457Z,8.70
2023-03-04T02:52:20.952Z,9.60
2023-03-04T02:54:51.493Z,10.07
2023-03-04T02:57:21.762Z,10.07
2023-03-04T02:59:55.610Z,7.93
2023-03-04T03:02:28.691Z,8.87
2023-03-04T03:05:00.633Z,9.30
2023-03-04T03:07:29.530Z,9.00
2023-03-04T03:09:58.312Z,8.97
2023-03-04T03:12:28.263Z,9.60
2023-03-04T03:14:56.208Z,9.57
2023-03-04T03:17:25.640Z,8.53
2023-03-04T03:19:53.846Z,9.50
2023-03-04T03:22:22.123Z,10.20
2023-03-04T03:24:50.555Z,10.27
2023-03-04T03:27:18.601Z,9.57
2023-03-04T03:29:48.724Z,8.33
2023-03-04T03:32:17.096Z,9.30
2023-03-04T03:34:49.622Z,8.83
2023-03-04T03:37:17.688Z,8.80
2023-03-04T03:39:46.198Z,9.00
2023-03-04T03:42:14.987Z,8.50
2023-03-04T03:44:45.565Z,9.30
2023-03-04T03:47:15.363Z,9.00
2023-03-04T03:49:44.387Z,10.27
2023-03-04T03:52:12.574Z,9.37
2023-03-04T03:54:40.672Z,9.87
2023-03-04T03:57:10.656Z,8.30
2023-03-04T03:59:38.761Z,9.23
2023-03-04T04:02:06.907Z,8.63
2023-03-04T04:04:37.398Z,9.27
2023-03-04T04:07:05.425Z,10.20
2023-03-04T04:09:34.095Z,10.27
2023-03-04T04:12:02.366Z,9.03
2023-03-04T04:14:35.167Z,9.37
2023-03-04T04:17:03.728Z,11.00
2023-03-04T04:19:32.341Z,9.50
2023-03-04T04:22:01.851Z,9.77
2023-03-04T04:24:32.731Z,9.80
2023-03-04T04:27:04.438Z,11.60
2023-03-04T04:29:33.956Z,10.20
2023-03-04T04:32:02.924Z,10.00
2023-03-04T04:34:31.012Z,11.00
2023-03-04T04:37:02.692Z,10.87
2023-03-04T04:39:35.863Z,10.20
2023-03-04T04:42:04.370Z,9.03
2023-03-04T04:44:32.613Z,9.97
2023-03-04T04:47:00.542Z,9.60
2023-03-04T04:49:28.560Z,8.40
2023-03-04T04:51:59.017Z,10.40
2023-03-04T04:54:28.563Z,9.90
2023-03-04T04:56:56.500Z,11.00
2023-03-04T04:59:25.538Z,10.17
2023-03-04T05:01:54.062Z,8.70
2023-03-04T05:04:22.238Z,10.90
2023-03-04T05:06:50.657Z,11.00
2023-03-04T05:09:19.765Z,10.80
2023-03-04T05:11:50.438Z,9.57
2023-03-04T05:14:18.643Z,10.33
2023-03-04T05:16:47.375Z,10.53
2023-03-04T05:19:16.205Z,11.13
2023-03-04T05:21:44.124Z,10.33
2023-03-04T05:24:14.546Z,10.30
2023-03-04T05:26:43.565Z,10.03
2023-03-04T05:29:13.289Z,10.77
2023-03-04T05:31:42.220Z,10.30
2023-03-04T05:34:12.741Z,11.03
2023-03-04T05:36:41.495Z,10.90
2023-03-04T05:39:09.518Z,10.43
2023-03-04T05:41:39.983Z,9.70
2023-03-04T05:44:10.841Z,10.13
2023-03-04T05:46:40.197Z,11.07
2023-03-04T05:49:08.517Z,10.07
2023-03-04T05:51:38.802Z,10.30
2023-03-04T05:54:07.180Z,10.23
2023-03-04T05:56:35.238Z,10.90
2023-03-04T05:59:03.552Z,11.00
2023-03-04T06:01:31.923Z,10.60
2023-03-04T06:04:04.122Z,10.80
2023-03-04T06:06:31.994Z,11.27
2023-03-04T06:09:00.432Z,10.77
2023-03-04T06:11:28.703Z,10.70
2023-03-04T06:13:59.218Z,10.93
2023-03-04T06:16:27.401Z,10.80
2023-03-04T06:18:56.107Z,11.33
2023-03-04T06:21:25.871Z,10.43
2023-03-04T06:23:54.140Z,10.00
2023-03-04T06:26:22.964Z,10.83
2023-03-04T06:28:56.923Z,11.70
2023-03-04T06:31:25.361Z,11.00
2023-03-04T06:33:56.211Z,11.23
2023-03-04T06:36:26.286Z,10.83
2023-03-04T06:38:54.367Z,11.43
2023-03-04T06:41:22.398Z,11.10
2023-03-04T06:43:51.532Z,9.63
2023-03-04T06:46:20.982Z,10.23
2023-03-04T06:48:49.459Z,11.47
2023-03-04T06:51:20.817Z,11.57
2023-03-04T06:53:52.743Z,16.40
2023-03-04T06:56:20.697Z,31.60
2023-03-04T06:58:49.761Z,15.20
2023-03-04T07:01:23.110Z,12.53
2023-03-04T07:03:52.326Z,11.23
2023-03-04T07:06:23.347Z,11.30
2023-03-04T07:08:52.873Z,12.17
2023-03-04T07:11:23.600Z,12.20
2023-03-04T07:13:52.953Z,11.93
2023-03-04T07:16:22.985Z,12.00
2023-03-04T07:18:51.299Z,12.20
2023-03-04T07:21:23.070Z,12.33
2023-03-04T07:23:52.557Z,12.27
2023-03-04T07:26:24.916Z,11.33
2023-03-04T07:28:54.656Z,13.47
2023-03-04T07:31:25.724Z,11.80
2023-03-04T07:33:58.431Z,50.00
2023-03-04T07:36:26.877Z,32.10
2023-03-04T07:39:00.832Z,13.93
2023-03-04T07:41:30.319Z,11.47
2023-03-04T07:43:59.502Z,11.73
2023-03-04T07:46:28.634Z,11.53
2023-03-04T07:49:02.133Z,12.53
2023-03-04T07:51:30.982Z,11.70
2023-03-04T07:54:02.229Z,12.60
2023-03-04T07:56:32.231Z,12.13
2023-03-04T07:59:01.256Z,13.67
2023-03-04T08:01:31.296Z,12.97
2023-03-04T08:04:00.261Z,43.90
2023-03-04T08:06:30.853Z,75.90
2023-03-04T08:09:03.094Z,26.30
2023-03-04T08:11:32.704Z,15.30
2023-03-04T08:14:01.874Z,11.87
2023-03-04T08:16:33.486Z,13.73
2023-03-04T08:19:03.204Z,13.30
2023-03-04T08:21:31.988Z,13.33
2023-03-04T08:24:04.507Z,13.47
2023-03-04T08:26:35.209Z,12.80
2023-03-04T08:29:05.097Z,12.10
2023-03-04T08:31:36.412Z,12.00
2023-03-04T08:34:05.338Z,13.50
2023-03-04T08:36:35.983Z,14.13
2023-03-04T08:39:06.386Z,27.90
2023-03-04T08:41:36.310Z,49.53
2023-03-04T08:44:08.313Z,22.20
2023-03-04T08:46:36.753Z,15.47
2023-03-04T08:49:05.288Z,14.57
2023-03-04T08:51:35.650Z,13.60
2023-03-04T08:54:07.166Z,13.27
2023-03-04T08:56:35.640Z,13.30
2023-03-04T08:59:05.289Z,12.57
2023-03-04T09:01:34.416Z,14.10
2023-03-04T09:04:03.057Z,15.10
2023-03-04T09:06:32.700Z,14.40
2023-03-04T09:09:07.238Z,13.70
2023-03-04T09:11:38.315Z,13.10
2023-03-04T09:14:07.045Z,16.10
2023-03-04T09:16:37.838Z,12.90
2023-03-04T09:19:05.843Z,14.60
2023-03-04T09:21:35.070Z,14.70
2023-03-04T09:24:03.472Z,14.37
2023-03-04T09:26:31.920Z,14.77
2023-03-04T09:29:04.390Z,14.00
2023-03-04T09:31:32.941Z,14.20
2023-03-04T09:34:01.777Z,14.33
2023-03-04T09:36:31.868Z,15.00
2023-03-04T09:39:02.621Z,12.77
2023-03-04T09:41:38.228Z,14.27
2023-03-04T09:44:25.438Z,14.20
2023-03-04T09:46:59.555Z,14.27
2023-03-04T09:49:31.688Z,14.67
2023-03-04T09:52:04.816Z,13.47
2023-03-04T09:54:59.056Z,13.70
2023-03-04T09:57:48.342Z,12.83
2023-03-04T10:00:20.723Z,12.37
2023-03-04T10:03:11.914Z,14.00
2023-03-04T10:05:45.505Z,14.60
2023-03-04T10:08:39.229Z,13.63
2023-03-04T10:11:14.179Z,13.83
2023-03-04T10:13:55.272Z,13.43
2023-03-04T10:16:31.817Z,14.30
2023-03-04T10:19:04.662Z,12.30
2023-03-04T10:21:37.216Z,13.47
2023-03-04T10:24:13.570Z,12.13
2023-03-04T10:26:45.853Z,11.30
2023-03-04T10:29:17.947Z,10.73
2023-03-04T10:31:49.501Z,10.33
2023-03-04T10:34:19.614Z,9.40
2023-03-04T10:37:00.535Z,8.53
2023-03-04T10:39:32.919Z,9.57
2023-03-04T10:42:03.267Z,9.00
2023-03-04T10:44:35.061Z,8.67
2023-03-04T10:47:11.559Z,7.80
2023-03-04T10:49:54.939Z,6.73
2023-03-04T10:52:30.967Z,7.33
2023-03-04T10:55:01.178Z,6.27
2023-03-04T10:57:36.556Z,5.57
2023-03-04T11:00:28.045Z,5.63
2023-03-04T11:03:28.722Z,5.63
2023-03-04T11:06:17.259Z,5.77
2023-03-04T11:08:55.394Z,6.43
2023-03-04T11:11:26.315Z,5.87
2023-03-04T11:13:58.247Z,5.40
2023-03-04T11:16:32.341Z,5.10
2023-03-04T11:19:07.151Z,5.70
2023-03-04T11:21:41.041Z,5.30
2023-03-04T11:24:28.091Z,5.53
2023-03-04T11:27:06.662Z,5.33
2023-03-04T11:29:43.678Z,5.30
2023-03-04T11:32:15.975Z,5.23
2023-03-04T11:34:54.918Z,6.00
2023-03-04T11:37:30.748Z,5.67
2023-03-04T11:40:05.034Z,6.30
2023-03-04T11:42:43.136Z,5.97
2023-03-04T11:45:27.869Z,5.40
2023-03-04T11:48:36.242Z,6.10
2023-03-04T11:51:13.130Z,5.40
2023-03-04T11:53:53.744Z,4.80
2023-03-04T11:56:32.847Z,5.23
2023-03-04T11:59:27.141Z,4.70
2023-03-04T12:02:11.641Z,4.90
2023-03-04T12:05:13.355Z,5.13
2023-03-04T12:08:25.112Z,5.27
2023-03-04T12:11:05.033Z,5.77
2023-03-04T12:14:09.452Z,5.80
2023-03-04T12:17:14.636Z,4.53
2023-03-04T12:20:02.361Z,5.10
2023-03-04T12:22:38.126Z,4.53
2023-03-04T12:25:31.146Z,4.33
2023-03-04T12:28:13.763Z,5.07
2023-03-04T12:30:56.333Z,5.20
2023-03-04T12:33:32.961Z,4.50
2023-03-04T12:36:12.369Z,4.30
2023-03-04T12:38:59.173Z,4.07
2023-03-04T12:41:35.988Z,3.93
2023-03-04T12:44:17.011Z,3.80
2023-03-04T12:47:06.867Z,3.90
2023-03-04T12:49:49.778Z,4.13
2023-03-04T12:52:25.508Z,3.53
2023-03-04T12:54:59.755Z,4.00
2023-03-04T12:57:33.381Z,4.27
2023-03-04T13:00:21.119Z,3.87
2023-03-04T13:02:58.399Z,3.00
2023-03-04T13:05:43.004Z,3.30
2023-03-04T13:08:26.094Z,4.23
2023-03-04T13:10:54.114Z,3.70
2023-03-04T13:13:40.991Z,3.73
2023-03-04T13:19:46.030Z,3.53
2023-03-04T13:22:33.668Z,3.90
2023-03-04T13:25:37.507Z,3.77
2023-03-04T13:28:19.815Z,3.70
2023-03-04T13:31:26.552Z,4.00
2023-03-04T13:34:09.994Z,3.97
2023-03-04T13:36:59.630Z,3.50
2023-03-04T13:39:33.179Z,3.37
2023-03-04T13:42:02.334Z,3.20
2023-03-04T13:45:04.267Z,4.83
2023-03-04T13:47:50.359Z,3.93
2023-03-04T13:50:31.743Z,3.60
2023-03-04T13:53:21.170Z,3.50
2023-03-04T13:56:08.771Z,2.80
2023-03-04T13:58:39.016Z,4.37
2023-03-04T14:01:21.841Z,3.23
2023-03-04T14:03:49.931Z,2.80
2023-03-04T14:06:26.782Z,3.50
2023-03-04T14:08:56.500Z,3.30
2023-03-04T14:11:34.660Z,2.70
2023-03-04T14:14:07.443Z,2.97
2023-03-04T14:16:40.742Z,2.70
2023-03-04T14:19:17.351Z,2.70
2023-03-04T14:21:50.564Z,2.77
2023-03-04T14:24:20.535Z,2.73
2023-03-04T14:26:49.654Z,3.30
2023-03-04T14:29:23.832Z,3.60
2023-03-04T14:31:56.676Z,3.30
2023-03-04T14:34:33.582Z,3.07
2023-03-04T14:37:04.930Z,3.07
2023-03-04T14:39:37.440Z,3.30
2023-03-04T14:42:11.010Z,3.40
2023-03-04T14:44:44.809Z,4.27
2023-03-04T14:47:20.121Z,3.90
2023-03-04T14:49:48.810Z,4.87
2023-03-04T14:52:37.884Z,3.67
2023-03-04T14:55:26.968Z,3.37
2023-03-04T14:57:59.821Z,4.00
2023-03-04T15:00:34.205Z,3.20
2023-03-04T15:03:21.912Z,2.80
2023-03-04T15:05:52.924Z,3.73
2023-03-04T15:08:34.696Z,4.10
2023-03-04T15:11:13.674Z,3.20
2023-03-04T15:13:48.447Z,3.40
2023-03-04T15:16:20.191Z,3.10
2023-03-04T15:18:56.324Z,3.03
2023-03-04T15:21:38.506Z,3.50
2023-03-04T15:24:13.842Z,2.97
2023-03-04T15:26:43.900Z,3.87
2023-03-04T15:29:15.854Z,3.13
2023-03-04T15:31:44.933Z,3.50
2023-03-04T15:34:16.071Z,4.07
2023-03-04T15:36:46.653Z,4.33
2023-03-04T15:39:21.967Z,4.47
2023-03-04T15:41:53.332Z,4.67
2023-03-04T15:44:22.008Z,4.00
2023-03-04T15:46:49.967Z,3.97
2023-03-04T15:49:17.893Z,4.90
2023-03-04T15:51:45.970Z,4.63
2023-03-04T15:54:18.576Z,4.20
2023-03-04T15:56:47.280Z,5.07
2023-03-04T15:59:18.443Z,4.70
2023-03-04T16:01:46.844Z,4.43
2023-03-04T16:04:16.915Z,5.50
2023-03-04T16:06:46.890Z,4.87
2023-03-04T16:09:19.666Z,4.90
2023-03-04T16:11:48.201Z,4.90
2023-03-04T16:14:18.642Z,5.17
2023-03-04T16:16:47.905Z,4.90
2023-03-04T16:19:16.339Z,5.20
2023-03-04T16:21:44.276Z,4.30
2023-03-04T16:24:19.156Z,4.90
2023-03-04T16:26:47.834Z,5.00
2023-03-04T16:29:17.478Z,6.30
2023-03-04T16:31:45.439Z,5.10
2023-03-04T16:34:15.789Z,5.40
2023-03-04T16:36:44.248Z,5.40
2023-03-04T16:39:19.760Z,4.27
2023-03-04T16:41:52.684Z,5.30
2023-03-04T16:44:20.538Z,5.53
2023-03-04T16:46:51.425Z,5.20
2023-03-04T16:49:19.384Z,3.30
2023-03-04T16:51:52.904Z,3.47
2023-03-04T16:54:29.963Z,2.63
2023-03-04T16:57:00.549Z,2.53
2023-03-04T16:59:29.559Z,2.63
2023-03-04T17:01:58.079Z,2.27
2023-03-04T17:04:26.178Z,2.80
2023-03-04T17:06:54.340Z,2.60
2023-03-04T17:09:22.226Z,3.33
2023-03-04T17:11:50.510Z,2.50
2023-03-04T17:14:23.160Z,3.43
2023-03-04T17:16:51.074Z,2.90
2023-03-04T17:19:19.205Z,3.70
2023-03-04T17:21:47.196Z,3.17
2023-03-04T17:24:17.258Z,2.90
2023-03-04T17:26:47.991Z,2.90
2023-03-04T17:29:16.505Z,2.53
2023-03-04T17:31:45.934Z,2.90
2023-03-04T17:34:14.428Z,3.40
2023-03-04T17:36:42.481Z,3.40
2023-03-04T17:39:10.575Z,3.30
2023-03-04T17:41:41.023Z,3.73
2023-03-04T17:44:09.061Z,3.30
2023-03-04T17:46:39.529Z,3.00
2023-03-04T17:49:12.831Z,4.73
2023-03-04T17:51:42.953Z,4.27
2023-03-04T17:54:12.140Z,4.10
2023-03-04T17:56:43.367Z,4.50
2023-03-04T17:59:15.418Z,4.33
2023-03-04T18:01:45.020Z,4.40
2023-03-04T18:04:15.539Z,24.30
2023-03-04T18:06:46.576Z,8.80
2023-03-04T18:09:17.011Z,7.20
2023-03-04T18:11:44.932Z,6.13
2023-03-04T18:14:13.740Z,5.77
2023-03-04T18:16:41.788Z,5.77
2023-03-04T18:19:10.675Z,5.87
2023-03-04T18:21:40.153Z,5.83
2023-03-04T18:24:09.701Z,6.03
2023-03-04T18:26:37.477Z,7.30
2023-03-04T18:29:06.175Z,7.10
2023-03-04T18:31:36.595Z,6.60
2023-03-04T18:34:05.377Z,7.10
2023-03-04T18:36:34.311Z,7.90
2023-03-04T18:39:05.502Z,7.67
2023-03-04T18:41:33.725Z,7.23
2023-03-04T18:44:01.735Z,8.57
2023-03-04T18:46:40.133Z,7.87
2023-03-04T18:49:11.487Z,9.90
2023-03-04T18:51:39.908Z,9.60
2023-03-04T18:54:09.746Z,8.00
2023-03-04T18:56:41.193Z,8.60
2023-03-04T18:59:13.849Z,8.30
2023-03-04T19:01:42.289Z,7.43
2023-03-04T19:04:10.853Z,8.53
2023-03-04T19:06:39.835Z,7.90
2023-03-04T19:09:09.133Z,8.20
2023-03-04T19:11:37.279Z,8.73
2023-03-04T19:14:07.796Z,7.80
2023-03-04T19:16:35.845Z,7.80
2023-03-04T19:19:03.971Z,8.33
2023-03-04T19:21:33.856Z,9.13
2023-03-04T19:24:02.098Z,9.40
2023-03-04T19:26:31.737Z,9.87
2023-03-04T19:29:02.503Z,8.10
2023-03-04T19:31:30.481Z,9.87
2023-03-04T19:33:59.215Z,8.50
2023-03-04T19:36:29.183Z,8.70
2023-03-04T19:38:57.163Z,8.53
2023-03-04T19:41:25.148Z,9.00
2023-03-04T19:43:54.813Z,8.93
2023-03-04T19:46:26.593Z,8.30
2023-03-04T19:48:54.747Z,8.73
2023-03-04T19:51:26.213Z,8.40
2023-03-04T19:53:54.554Z,9.13
2023-03-04T19:56:23.189Z,9.03
2023-03-04T19:58:55.788Z,8.33
2023-03-04T20:01:27.912Z,8.20
2023-03-04T20:03:56.722Z,8.30
2023-03-04T20:06:27.147Z,8.17
2023-03-04T20:08:59.177Z,8.00
2023-03-04T20:11:29.395Z,9.73
2023-03-04T20:13:59.340Z,9.43
2023-03-04T20:16:27.864Z,9.40
2023-03-04T20:18:58.050Z,8.53
2023-03-04T20:21:26.457Z,8.47
2023-03-04T20:23:54.423Z,8.60
2023-03-04T20:26:24.844Z,9.27
2023-03-04T20:28:52.904Z,8.73
2023-03-04T20:31:24.418Z,7.60
2023-03-04T20:33:55.811Z,8.53
2023-03-04T20:36:27.893Z,8.57
2023-03-04T20:39:02.426Z,8.57
2023-03-04T20:41:32.269Z,8.77
2023-03-04T20:44:00.164Z,7.73
2023-03-04T20:46:34.511Z,9.17
2023-03-04T20:49:05.502Z,9.97
2023-03-04T20:51:34.523Z,8.30
2023-03-04T20:54:02.884Z,10.87
2023-03-04T20:56:31.285Z,9.37
2023-03-04T20:59:03.649Z,9.10
2023-03-04T21:01:33.409Z,9.80
2023-03-04T21:04:01.623Z,9.40
2023-03-04T21:06:30.286Z,11.00
2023-03-04T21:09:02.164Z,10.07
2023-03-04T21:11:30.426Z,10.13
2023-03-04T21:13:59.085Z,9.37
2023-03-04T21:16:30.222Z,10.33
2023-03-04T21:19:00.701Z,8.67
2023-03-04T21:21:30.640Z,9.50
2023-03-04T21:24:01.686Z,9.03
2023-03-04T21:26:29.519Z,8.83
2023-03-04T21:28:57.673Z,9.70
2023-03-04T21:31:29.868Z,9.10
2023-03-04T21:34:00.268Z,8.13
2023-03-04T21:36:28.472Z,9.10
2023-03-04T21:38:56.663Z,9.77
2023-03-04T21:41:26.032Z,9.00
2023-03-04T21:43:54.240Z,9.37
2023-03-04T21:46:23.308Z,9.67
2023-03-04T21:48:51.478Z,8.80
2023-03-04T21:51:21.449Z,8.87
2023-03-04T21:53:51.479Z,8.40
2023-03-04T21:56:19.663Z,9.53
2023-03-04T21:58:47.968Z,8.67
2023-03-04T22:01:18.532Z,9.77
2023-03-04T22:03:48.743Z,10.37
2023-03-04T22:06:21.647Z,8.60
2023-03-04T22:08:55.070Z,8.33
2023-03-04T22:11:26.665Z,9.83
2023-03-04T22:13:55.242Z,9.60
2023-03-04T22:16:23.838Z,9.40
2023-03-04T22:18:55.348Z,10.40
2023-03-04T22:21:24.201Z,9.60
2023-03-04T22:23:53.818Z,9.27
2023-03-04T22:26:26.946Z,8.63
2023-03-04T22:28:54.990Z,9.47
2023-03-04T22:31:30.117Z,10.30
2023-03-04T22:33:58.417Z,10.27
2023-03-04T22:36:30.029Z,9.93
2023-03-04T22:39:02.799Z,9.90
2023-03-04T22:41:30.858Z,9.23
2023-03-04T22:43:58.870Z,9.60
2023-03-04T22:46:31.835Z,10.20
2023-03-04T22:49:05.915Z,10.30
2023-03-04T22:51:35.330Z,8.37
2023-03-04T22:54:10.773Z,8.97
2023-03-04T22:56:41.073Z,8.63
2023-03-04T22:59:08.959Z,9.90
2023-03-04T23:01:37.034Z,10.00
2023-03-04T23:04:05.208Z,9.33
2023-03-04T23:06:33.799Z,9.67
2023-03-04T23:09:01.924Z,9.63
2023-03-04T23:11:35.210Z,9.80
2023-03-04T23:14:07.372Z,9.67
2023-03-04T23:16:38.625Z,9.77
2023-03-04T23:19:07.858Z,9.63
2023-03-04T23:21:36.388Z,9.70
2023-03-04T23:24:06.693Z,8.67
2023-03-04T23:26:39.625Z,9.90
2023-03-04T23:29:10.401Z,9.37
2023-03-04T23:31:38.628Z,10.00
2023-03-04T23:34:08.850Z,9.50
2023-03-04T23:36:38.125Z,9.60
2023-03-04T23:39:07.335Z,9.50
2023-03-04T23:41:38.588Z,8.73
2023-03-04T23:44:08.250Z,9.47
2023-03-04T23:46:39.269Z,8.70
2023-03-04T23:49:09.138Z,10.10
2023-03-04T23:51:40.911Z,10.87
2023-03-04T23:54:09.281Z,9.13
2023-03-04T23:56:41.220Z,9.30
2023-03-04T23:59:09.209Z,8.33
